Date,TemperatureHighF,TemperatureAvgF,TemperatureLowF,DewpointHighF,DewpointAvgF,DewpointLowF,HumidityHigh,HumidityAvg,HumidityLow,PressureMaxIn,PressureMinIn,WindSpeedMaxMPH,WindSpeedAvgMPH,GustSpeedMaxMPH,PrecipitationSumIn
2013-9-2,78,72,65,71,67,63,95,85,74,29.85,29.79,4,1,8,0.00
2013-9-3,79,69,58,70,64,57,100,85,54,30.00,29.78,5,1,8,0.09
2013-9-4,79,64,53,64,58,53,100,83,47,30.13,29.99,3,0,7,0.01
2013-9-5,80,64,50,63,56,50,100,79,43,30.17,30.09,2,0,6,0.01
2013-9-6,80,70,56,65,60,55,98,74,50,30.16,30.06,3,0,0,0.00
2013-9-7,80,66,54,67,60,54,100,86,56,30.10,29.98,5,1,7,0.01
2013-9-8,81,67,57,70,62,57,100,87,57,30.01,29.94,2,0,3,0.00
2013-9-9,86,70,59,72,65,59,100,85,54,30.12,30.01,3,0,6,0.01
2013-9-10,86,72,61,70,66,61,100,83,52,30.21,30.10,2,0,5,0.00
2013-9-11,83,72,64,72,68,64,100,89,67,30.19,30.06,4,0,8,0.00
2013-9-12,80,69,63,72,66,63,100,92,72,30.06,29.84,5,1,9,0.41
2013-9-13,70,64,53,64,56,47,100,77,48,29.96,29.82,6,1,8,0.00
2013-9-14,72,56,43,52,46,41,99,76,34,30.12,29.96,1,0,6,0.00
2013-9-15,76,59,45,60,53,45,100,82,48,30.21,30.10,4,0,7,0.01
2013-9-16,71,61,52,64,57,52,100,88,70,30.22,30.12,5,1,10,0.00
2013-9-17,69,58,48,58,53,48,99,85,61,30.28,30.21,4,1,9,0.00
2013-9-18,69,59,49,61,56,49,99,90,67,30.25,30.15,2,0,5,0.00
2013-9-19,68,63,60,66,62,60,100,98,94,30.16,30.06,1,0,4,0.48
2013-9-20,79,67,60,69,64,60,100,91,65,30.07,29.88,4,0,7,0.01
2013-9-21,66,62,57,65,61,57,100,98,94,29.88,29.71,5,0,5,0.53
2013-9-22,70,57,46,58,52,46,100,86,56,29.95,29.78,4,0,7,0.01
2013-9-23,73,57,43,59,51,43,100,84,54,30.05,29.95,4,0,7,0.00
2013-9-24,76,58,46,61,53,46,100,87,46,30.08,29.91,2,0,5,0.01
2013-9-25,66,59,52,62,57,52,100,95,84,29.92,29.83,2,0,5,0.04
2013-9-26,74,61,51,59,54,48,100,82,43,30.04,29.88,4,0,8,0.00
2013-9-27,76,59,47,60,53,46,100,83,47,30.16,30.05,3,0,5,0.01
2013-9-28,72,57,45,58,52,45,100,85,56,30.24,30.13,3,0,5,0.00
2013-9-29,71,57,47,59,53,46,99,87,62,30.17,30.02,4,0,7,0.00
2013-9-30,71,60,51,60,56,51,100,88,61,30.08,29.99,3,0,5,0.00